Terminal Aerodrome Forecast
Issued by NWS Boston, MA

Home | Current Version | Previous Version | Text Only | Print | Product List | Glossary Off
Versions: 1 2 3 4 5 6 7 8 9 10 11 12 13 14 15 16 17 18 19 20 21 22 23 24 25 26 27 28 29 30 31 32 33 34 35 36 37 38 39 40 41 42 43 44 45 46
000 FTUS41 KBOX 230538 TAFBOS TAF KBOS 230538Z 2306/2412 01007KT P6SM BKN015 OVC035 FM231200 02009KT P6SM BKN020 FM231500 06012KT P6SM BKN025 FM231600 06012KT P6SM BKN040 FM231900 07010KT P6SM SCT050 FM240600 34005KT P6SM SCT250=

USA.gov is the U.S. government's official web portal to all federal, state and local government web resources and services.